createdAt,value
2023-02-04T00:00:34.730Z,14.87
2023-02-04T00:03:01.632Z,21.30
2023-02-04T00:05:28.505Z,18.03
2023-02-04T00:07:55.856Z,19.27
2023-02-04T00:10:22.710Z,16.93
2023-02-04T00:12:49.517Z,13.83
2023-02-04T00:15:16.395Z,13.77
2023-02-04T00:17:43.304Z,16.07
2023-02-04T00:20:11.699Z,13.27
2023-02-04T00:22:38.618Z,17.23
2023-02-04T00:25:05.898Z,15.57
2023-02-04T00:27:36.054Z,14.30
2023-02-04T00:30:04.464Z,13.73
2023-02-04T00:32:31.409Z,13.37
2023-02-04T00:34:58.909Z,13.90
2023-02-04T00:37:25.886Z,11.40
2023-02-04T00:39:52.692Z,10.43
2023-02-04T00:42:19.670Z,10.87
2023-02-04T00:44:46.580Z,18.27
2023-02-04T00:47:13.467Z,14.33
2023-02-04T00:49:40.452Z,11.03
2023-02-04T00:52:07.476Z,12.63
2023-02-04T00:54:38.602Z,17.00
2023-02-04T00:57:05.459Z,7.67
2023-02-04T00:59:32.349Z,13.40
2023-02-04T01:02:00.341Z,10.57
2023-02-04T01:04:28.394Z,12.17
2023-02-04T01:06:55.485Z,8.67
2023-02-04T01:09:22.412Z,6.23
2023-02-04T01:11:49.362Z,10.47
2023-02-04T01:14:16.794Z,17.03
2023-02-04T01:16:43.730Z,12.43
2023-02-04T01:19:10.586Z,19.33
2023-02-04T01:21:38.451Z,9.30
2023-02-04T01:24:06.007Z,13.23
2023-02-04T01:26:32.844Z,9.40
2023-02-04T01:28:59.782Z,5.90
2023-02-04T01:31:27.096Z,5.97
2023-02-04T01:33:53.899Z,11.37
2023-02-04T01:36:21.954Z,7.60
2023-02-04T01:38:49.596Z,7.47
2023-02-04T01:41:18.426Z,7.07
2023-02-04T01:43:47.335Z,7.07
2023-02-04T01:46:15.345Z,7.20
2023-02-04T01:48:42.576Z,8.27
2023-02-04T01:51:16.391Z,11.03
2023-02-04T01:53:43.913Z,8.73
2023-02-04T01:56:20.259Z,12.07
2023-02-04T01:58:48.435Z,8.93
2023-02-04T02:01:33.894Z,7.80
2023-02-04T02:04:01.443Z,10.97
2023-02-04T02:06:28.948Z,8.97
2023-02-04T02:08:59.201Z,16.90
2023-02-04T02:11:27.851Z,10.13
2023-02-04T02:13:55.429Z,13.30
2023-02-04T02:16:22.508Z,10.97
2023-02-04T02:18:49.543Z,11.63
2023-02-04T02:21:32.667Z,13.83
2023-02-04T02:24:01.170Z,10.40
2023-02-04T02:26:28.363Z,10.03
2023-02-04T02:28:55.515Z,11.00
2023-02-04T02:31:23.501Z,11.07
2023-02-04T02:33:50.682Z,12.70
2023-02-04T02:36:17.907Z,10.73
2023-02-04T02:38:44.927Z,11.83
2023-02-04T02:41:11.872Z,8.87
2023-02-04T02:43:39.143Z,10.13
2023-02-04T02:46:06.961Z,7.47
2023-02-04T02:48:33.917Z,10.33
2023-02-04T02:51:00.980Z,8.37
2023-02-04T02:53:28.033Z,12.87
2023-02-04T02:55:54.889Z,9.37
2023-02-04T02:58:36.379Z,9.73
2023-02-04T03:01:06.453Z,8.20
2023-02-04T03:03:36.673Z,9.87
2023-02-04T03:06:23.124Z,12.17
2023-02-04T03:08:55.567Z,9.63
2023-02-04T03:11:23.341Z,8.37
2023-02-04T03:13:51.926Z,10.60
2023-02-04T03:16:19.807Z,17.57
2023-02-04T03:18:47.607Z,10.47
2023-02-04T03:21:14.772Z,14.70
2023-02-04T03:23:42.000Z,10.30
2023-02-04T03:26:09.082Z,11.47
2023-02-04T03:28:41.150Z,19.47
2023-02-04T03:31:09.572Z,14.40
2023-02-04T03:33:36.708Z,10.33
2023-02-04T03:36:03.948Z,6.83
2023-02-04T03:38:34.493Z,14.37
2023-02-04T03:41:03.077Z,9.00
2023-02-04T03:43:34.077Z,8.70
2023-02-04T03:46:01.363Z,15.50
2023-02-04T03:48:30.632Z,7.37
2023-02-04T03:50:59.664Z,13.83
2023-02-04T03:53:33.928Z,7.77
2023-02-04T03:56:00.960Z,12.43
2023-02-04T03:58:28.583Z,7.57
2023-02-04T04:00:56.282Z,7.73
2023-02-04T04:03:23.229Z,6.53
2023-02-04T04:05:51.178Z,10.70
2023-02-04T04:08:19.245Z,11.37
2023-02-04T04:10:46.417Z,12.37
2023-02-04T04:13:15.661Z,5.63
2023-02-04T04:15:42.740Z,6.90
2023-02-04T04:18:11.862Z,7.87
2023-02-04T04:20:39.014Z,8.97
2023-02-04T04:23:08.124Z,9.40
2023-02-04T04:25:35.129Z,8.70
2023-02-04T04:28:04.294Z,7.83
2023-02-04T04:30:31.527Z,9.20
2023-02-04T04:32:59.617Z,8.13
2023-02-04T04:35:28.652Z,11.33
2023-02-04T04:37:55.764Z,11.10
2023-02-04T04:40:28.806Z,12.37
2023-02-04T04:42:57.160Z,8.83
2023-02-04T04:45:25.520Z,9.63
2023-02-04T04:47:52.481Z,7.87
2023-02-04T04:50:19.755Z,14.30
2023-02-04T04:52:48.989Z,7.83
2023-02-04T04:55:16.093Z,12.00
2023-02-04T04:57:45.187Z,10.43
2023-02-04T05:00:16.747Z,9.57
2023-02-04T05:02:43.994Z,9.63
2023-02-04T05:05:11.996Z,10.40
2023-02-04T05:07:39.325Z,8.63
2023-02-04T05:10:06.692Z,14.97
2023-02-04T05:12:33.606Z,8.87
2023-02-04T05:15:00.759Z,11.03
2023-02-04T05:17:28.781Z,10.10
2023-02-04T05:19:56.126Z,13.30
2023-02-04T05:22:23.003Z,9.20
2023-02-04T05:24:50.009Z,8.30
2023-02-04T05:27:18.450Z,12.07
2023-02-04T05:29:46.472Z,14.30
2023-02-04T05:32:13.645Z,11.97
2023-02-04T05:34:40.855Z,10.30
2023-02-04T05:37:08.879Z,8.73
2023-02-04T05:39:35.920Z,10.97
2023-02-04T05:42:03.216Z,12.13
2023-02-04T05:44:30.419Z,8.37
2023-02-04T05:46:57.322Z,10.07
2023-02-04T05:49:24.908Z,9.83
2023-02-04T05:51:51.849Z,11.87
2023-02-04T05:54:20.912Z,5.83
2023-02-04T05:56:48.250Z,16.40
2023-02-04T05:59:22.178Z,10.43
2023-02-04T06:01:52.250Z,15.33
2023-02-04T06:04:20.571Z,20.00
2023-02-04T06:06:48.684Z,10.73
2023-02-04T06:09:16.012Z,7.27
2023-02-04T06:11:43.918Z,9.00
2023-02-04T06:14:11.603Z,10.17
2023-02-04T06:16:38.599Z,10.47
2023-02-04T06:19:05.719Z,13.27
2023-02-04T06:21:34.701Z,8.63
2023-02-04T06:24:03.552Z,23.10
2023-02-04T06:26:31.676Z,10.77
2023-02-04T06:29:04.998Z,9.50
2023-02-04T06:31:38.576Z,11.47
2023-02-04T06:34:12.972Z,12.53
2023-02-04T06:36:42.208Z,13.13
2023-02-04T06:39:09.722Z,20.20
2023-02-04T06:41:37.791Z,10.97
2023-02-04T06:44:04.891Z,13.33
2023-02-04T06:46:47.997Z,12.57
2023-02-04T06:49:15.220Z,11.30
2023-02-04T06:51:42.251Z,24.10
2023-02-04T06:54:09.408Z,10.57
2023-02-04T06:56:36.607Z,13.37
2023-02-04T06:59:04.641Z,13.10
2023-02-04T07:01:33.944Z,22.93
2023-02-04T07:04:01.087Z,15.13
2023-02-04T07:06:28.067Z,28.43
2023-02-04T07:08:55.151Z,25.07
2023-02-04T07:11:22.306Z,15.10
2023-02-04T07:13:49.532Z,12.57
2023-02-04T07:16:16.413Z,22.67
2023-02-04T07:18:43.777Z,13.53
2023-02-04T07:21:10.568Z,19.73
2023-02-04T07:23:37.535Z,24.93
2023-02-04T07:26:04.806Z,25.53
2023-02-04T07:28:31.700Z,24.70
2023-02-04T07:30:58.660Z,18.63
2023-02-04T07:33:27.844Z,23.63
2023-02-04T07:35:54.750Z,25.73
2023-02-04T07:38:23.673Z,31.40
2023-02-04T07:40:50.598Z,25.70
2023-02-04T07:43:19.517Z,34.33
2023-02-04T07:45:47.682Z,8.47
2023-02-04T07:48:14.820Z,10.30
2023-02-04T07:50:41.964Z,19.80
2023-02-04T07:53:11.055Z,13.53
2023-02-04T07:55:38.131Z,8.50
2023-02-04T07:58:06.279Z,13.67
2023-02-04T08:00:33.750Z,11.93
2023-02-04T08:03:00.813Z,10.10
2023-02-04T08:05:27.882Z,13.20
2023-02-04T08:07:54.892Z,8.43
2023-02-04T08:10:22.970Z,9.67
2023-02-04T08:12:57.948Z,10.10
2023-02-04T08:15:24.784Z,9.77
2023-02-04T08:17:51.685Z,12.50
2023-02-04T08:20:18.911Z,14.37
2023-02-04T08:22:46.041Z,40.67
2023-02-04T08:25:13.281Z,41.13
2023-02-04T08:27:40.517Z,40.33
2023-02-04T08:30:08.541Z,14.17
2023-02-04T08:32:36.781Z,11.43
2023-02-04T08:35:06.541Z,8.93
2023-02-04T08:37:39.282Z,7.23
2023-02-04T08:40:07.298Z,10.07
2023-02-04T08:42:34.931Z,14.17
2023-02-04T08:45:02.040Z,12.43
2023-02-04T08:47:29.210Z,20.10
2023-02-04T08:49:56.267Z,16.27
2023-02-04T08:52:24.346Z,8.90
2023-02-04T08:54:51.175Z,11.27
2023-02-04T08:57:18.108Z,7.87
2023-02-04T08:59:46.348Z,11.40
2023-02-04T09:02:13.409Z,11.97
2023-02-04T09:04:40.519Z,15.03
2023-02-04T09:07:07.400Z,19.13
2023-02-04T09:09:34.607Z,15.63
2023-02-04T09:12:02.015Z,10.50
2023-02-04T09:14:30.113Z,5.03
2023-02-04T09:16:57.264Z,7.73
2023-02-04T09:19:25.673Z,11.30
2023-02-04T09:21:55.566Z,8.77
2023-02-04T09:24:23.822Z,16.80
2023-02-04T09:26:50.707Z,14.00
2023-02-04T09:29:17.576Z,13.07
2023-02-04T09:31:44.837Z,6.40
2023-02-04T09:34:11.779Z,5.80
2023-02-04T09:36:39.184Z,10.17
2023-02-04T09:39:07.432Z,9.37
2023-02-04T09:41:35.100Z,11.93
2023-02-04T09:44:04.067Z,6.33
2023-02-04T09:46:32.142Z,7.03
2023-02-04T09:48:59.853Z,6.87
2023-02-04T09:51:32.940Z,8.73
2023-02-04T09:54:21.071Z,8.43
2023-02-04T09:56:48.397Z,9.87
2023-02-04T09:59:18.239Z,5.03
2023-02-04T10:01:46.217Z,5.83
2023-02-04T10:04:15.261Z,5.27
2023-02-04T10:06:44.137Z,33.17
2023-02-04T10:09:15.988Z,12.87
2023-02-04T10:11:43.804Z,9.63
2023-02-04T10:14:19.594Z,4.87
2023-02-04T10:16:59.257Z,5.37
2023-02-04T10:19:29.012Z,5.20
2023-02-04T10:21:56.385Z,7.50
2023-02-04T10:24:27.247Z,8.40
2023-02-04T10:26:54.910Z,8.93
2023-02-04T10:29:25.870Z,9.10
2023-02-04T10:31:53.436Z,9.10
2023-02-04T10:34:23.608Z,4.83
2023-02-04T10:36:57.838Z,5.20
2023-02-04T10:39:28.231Z,9.30
2023-02-04T10:42:00.536Z,8.20
2023-02-04T10:44:36.012Z,4.53
2023-02-04T10:47:07.177Z,7.93
2023-02-04T10:49:36.671Z,3.70
2023-02-04T10:52:16.565Z,5.73
2023-02-04T10:54:44.647Z,8.43
2023-02-04T10:57:26.407Z,4.37
2023-02-04T11:00:05.330Z,6.00
2023-02-04T11:02:49.178Z,6.83
2023-02-04T11:05:23.690Z,3.50
2023-02-04T11:07:51.484Z,7.27
2023-02-04T11:10:25.161Z,6.00
2023-02-04T11:12:55.186Z,8.00
2023-02-04T11:15:42.434Z,6.67
2023-02-04T11:18:25.475Z,4.97
2023-02-04T11:20:55.590Z,5.80
2023-02-04T11:23:30.065Z,9.47
2023-02-04T11:26:17.318Z,6.43
2023-02-04T11:28:59.776Z,8.33
2023-02-04T11:31:27.066Z,11.20
2023-02-04T11:34:25.858Z,7.93
2023-02-04T11:37:18.618Z,10.93
2023-02-04T11:39:48.612Z,8.43
2023-02-04T11:42:59.653Z,8.13
2023-02-04T11:45:35.075Z,13.80
2023-02-04T11:48:11.859Z,10.07
2023-02-04T11:50:39.357Z,7.17
2023-02-04T11:53:06.540Z,8.40
2023-02-04T11:55:47.818Z,8.20
2023-02-04T11:58:18.225Z,17.07
2023-02-04T12:00:45.937Z,9.03
2023-02-04T12:03:24.652Z,7.80
2023-02-04T12:05:54.956Z,8.93
2023-02-04T12:08:24.601Z,5.93
2023-02-04T12:11:01.183Z,7.10
2023-02-04T12:13:30.635Z,11.17
2023-02-04T12:16:04.497Z,5.67
2023-02-04T12:18:33.607Z,5.00
2023-02-04T12:21:02.032Z,4.87
2023-02-04T12:23:30.078Z,4.93
2023-02-04T12:25:57.761Z,6.43
2023-02-04T12:28:26.119Z,5.40
2023-02-04T12:30:53.208Z,13.73
2023-02-04T12:33:20.820Z,4.67
2023-02-04T12:35:48.167Z,7.03
2023-02-04T12:38:15.568Z,40.80
2023-02-04T12:40:42.555Z,14.73
2023-02-04T12:43:10.194Z,10.90
2023-02-04T12:45:38.273Z,7.53
2023-02-04T12:48:05.327Z,14.90
2023-02-04T12:50:32.333Z,13.63
2023-02-04T12:53:00.034Z,8.87
2023-02-04T12:55:29.652Z,7.87
2023-02-04T12:57:56.615Z,6.90
2023-02-04T13:00:24.525Z,7.67
2023-02-04T13:02:51.512Z,7.57
2023-02-04T13:05:18.684Z,7.93
2023-02-04T13:07:49.982Z,6.90
2023-02-04T13:10:18.218Z,6.13
2023-02-04T13:12:45.069Z,3.60
2023-02-04T13:15:12.030Z,7.23
2023-02-04T13:17:38.920Z,8.40
2023-02-04T13:20:06.233Z,7.80
2023-02-04T13:22:33.108Z,9.20
2023-02-04T13:25:00.035Z,10.80
2023-02-04T13:27:28.053Z,11.50
2023-02-04T13:29:54.964Z,10.40
2023-02-04T13:32:21.976Z,9.73
2023-02-04T13:34:48.912Z,5.87
2023-02-04T13:37:19.994Z,57.43
2023-02-04T13:39:46.906Z,16.13
2023-02-04T13:42:13.857Z,7.73
2023-02-04T13:44:40.896Z,12.13
2023-02-04T13:47:07.875Z,10.83
2023-02-04T13:49:34.896Z,7.67
2023-02-04T13:52:01.821Z,10.00
2023-02-04T13:54:28.713Z,11.17
2023-02-04T13:56:55.592Z,5.37
2023-02-04T13:59:22.486Z,4.30
2023-02-04T14:01:49.450Z,5.33
2023-02-04T14:04:16.722Z,13.53
2023-02-04T14:06:43.857Z,7.80
2023-02-04T14:09:12.290Z,15.47
2023-02-04T14:11:40.160Z,9.47
2023-02-04T14:14:07.913Z,8.77
2023-02-04T14:16:36.955Z,13.40
2023-02-04T14:19:05.294Z,10.50
2023-02-04T14:21:32.422Z,8.23
2023-02-04T14:23:59.507Z,6.90
2023-02-04T14:26:26.491Z,11.83
2023-02-04T14:28:53.346Z,5.53
2023-02-04T14:31:20.558Z,8.87
2023-02-04T14:33:49.850Z,17.73
2023-02-04T14:36:17.100Z,33.30
2023-02-04T14:38:44.169Z,45.00
2023-02-04T14:41:16.206Z,16.90
2023-02-04T14:43:43.091Z,14.07
2023-02-04T14:46:10.088Z,15.13
2023-02-04T14:48:37.044Z,9.27
2023-02-04T14:51:04.872Z,13.17
2023-02-04T14:53:31.901Z,15.00
2023-02-04T14:55:58.764Z,9.50
2023-02-04T14:58:27.823Z,13.13
2023-02-04T15:00:55.297Z,11.17
2023-02-04T15:03:22.557Z,12.80
2023-02-04T15:05:49.384Z,14.37
2023-02-04T15:08:16.327Z,22.03
2023-02-04T15:10:43.238Z,16.47
2023-02-04T15:13:10.211Z,12.77
2023-02-04T15:15:37.444Z,20.63
2023-02-04T15:18:04.559Z,19.83
2023-02-04T15:20:31.733Z,11.17
2023-02-04T15:23:00.658Z,14.67
2023-02-04T15:25:27.995Z,15.70
2023-02-04T15:27:54.973Z,12.80
2023-02-04T15:30:21.860Z,13.50
2023-02-04T15:32:48.875Z,13.20
2023-02-04T15:35:15.900Z,17.60
2023-02-04T15:37:42.726Z,9.97
2023-02-04T15:40:11.198Z,22.93
2023-02-04T15:42:38.478Z,30.50
2023-02-04T15:45:06.565Z,28.83
2023-02-04T15:47:33.418Z,19.27
2023-02-04T15:50:00.420Z,28.67
2023-02-04T15:52:29.225Z,25.30
2023-02-04T15:54:56.245Z,23.97
2023-02-04T15:57:23.252Z,20.07
2023-02-04T15:59:50.125Z,14.23
2023-02-04T16:02:17.330Z,19.33
2023-02-04T16:04:45.500Z,14.27
2023-02-04T16:07:12.635Z,7.93
2023-02-04T16:09:39.583Z,15.10
2023-02-04T16:12:07.202Z,14.37
2023-02-04T16:14:34.040Z,15.23
2023-02-04T16:17:01.833Z,26.17
2023-02-04T16:19:29.180Z,25.40
2023-02-04T16:21:56.356Z,110.00
2023-02-04T16:24:24.280Z,38.90
2023-02-04T16:26:51.324Z,28.00
2023-02-04T16:29:18.236Z,14.57
2023-02-04T16:31:45.141Z,25.10
2023-02-04T16:34:11.996Z,24.87
2023-02-04T16:36:38.874Z,21.53
2023-02-04T16:39:05.847Z,28.37
2023-02-04T16:41:32.802Z,30.53
2023-02-04T16:44:00.255Z,16.60
2023-02-04T16:46:28.752Z,11.43
2023-02-04T16:48:55.601Z,27.97
2023-02-04T16:51:22.426Z,19.63
2023-02-04T16:53:50.519Z,17.40
2023-02-04T16:56:17.472Z,16.60
2023-02-04T16:58:44.896Z,26.33
2023-02-04T17:01:12.501Z,17.43
2023-02-04T17:03:39.932Z,14.10
2023-02-04T17:06:07.078Z,32.37
2023-02-04T17:08:33.966Z,51.23
2023-02-04T17:11:19.284Z,48.77
2023-02-04T17:13:46.107Z,27.53
2023-02-04T17:16:13.020Z,46.30
2023-02-04T17:18:39.937Z,58.87
2023-02-04T17:21:07.042Z,187.70
2023-02-04T17:23:35.454Z,69.13
2023-02-04T17:26:04.508Z,46.73
2023-02-04T17:28:31.429Z,47.60
2023-02-04T17:30:58.400Z,34.20
2023-02-04T17:33:25.602Z,37.57
2023-02-04T17:35:52.970Z,53.73
2023-02-04T17:38:19.890Z,62.67
2023-02-04T17:40:46.771Z,46.60
2023-02-04T17:43:13.859Z,41.30
2023-02-04T17:45:40.712Z,37.60
2023-02-04T17:48:07.795Z,20.60
2023-02-04T17:53:04.230Z,23.23
2023-02-04T17:55:33.940Z,17.90
2023-02-04T17:58:07.757Z,19.20
2023-02-04T18:00:37.049Z,14.67
2023-02-04T18:03:05.885Z,14.87
2023-02-04T18:05:45.665Z,16.67
2023-02-04T18:08:21.363Z,13.23
2023-02-04T18:10:50.292Z,29.87
2023-02-04T18:13:35.316Z,20.33
2023-02-04T18:16:25.266Z,21.37
2023-02-04T18:18:58.069Z,12.03
2023-02-04T18:21:31.274Z,24.90
2023-02-04T18:24:14.422Z,14.83
2023-02-04T18:26:54.165Z,20.20
2023-02-04T18:29:32.973Z,60.23
2023-02-04T18:32:09.018Z,58.30
2023-02-04T18:34:38.894Z,48.07
2023-02-04T18:37:27.143Z,68.03
2023-02-04T18:40:00.785Z,61.60
2023-02-04T18:42:27.802Z,45.93
2023-02-04T18:44:55.112Z,34.77
2023-02-04T18:47:33.497Z,37.37
2023-02-04T18:50:02.222Z,36.37
2023-02-04T18:52:36.825Z,31.73
2023-02-04T18:55:20.054Z,39.27
2023-02-04T18:57:46.900Z,31.03
2023-02-04T19:00:32.829Z,28.57
2023-02-04T19:03:14.596Z,21.97
2023-02-04T19:05:49.632Z,24.93
2023-02-04T19:08:22.720Z,41.40
2023-02-04T19:10:51.447Z,37.37
2023-02-04T19:13:39.706Z,27.57
2023-02-04T19:16:27.359Z,21.97
2023-02-04T19:18:55.273Z,32.27
2023-02-04T19:21:22.718Z,23.70
2023-02-04T19:23:50.858Z,26.23
2023-02-04T19:26:34.358Z,31.40
2023-02-04T19:29:21.304Z,31.33
2023-02-04T19:31:49.281Z,36.67
2023-02-04T19:34:27.579Z,54.10
2023-02-04T19:36:55.573Z,45.27
2023-02-04T19:39:32.762Z,37.70
2023-02-04T19:41:59.748Z,28.30
2023-02-04T19:44:48.195Z,37.90
2023-02-04T19:47:20.825Z,29.13
2023-02-04T19:49:47.676Z,41.47
2023-02-04T19:52:36.467Z,79.07
2023-02-04T19:55:18.223Z,81.20
2023-02-04T19:57:48.160Z,105.10
2023-02-04T20:00:38.283Z,32.20
2023-02-04T20:03:18.358Z,32.07
2023-02-04T20:05:45.226Z,33.23
2023-02-04T20:08:30.261Z,29.60
2023-02-04T20:10:58.194Z,32.10
2023-02-04T20:13:27.073Z,41.23
2023-02-04T20:15:58.077Z,29.30
2023-02-04T20:18:28.354Z,51.43
2023-02-04T20:20:55.166Z,40.03
2023-02-04T20:23:28.737Z,51.03
2023-02-04T20:25:56.011Z,34.20
2023-02-04T20:28:38.583Z,40.97
2023-02-04T20:31:27.383Z,52.93
2023-02-04T20:33:59.512Z,54.93
2023-02-04T20:36:26.885Z,47.27
2023-02-04T20:39:16.436Z,46.70
2023-02-04T20:41:43.551Z,32.67
2023-02-04T20:44:37.988Z,70.47
2023-02-04T20:47:19.894Z,66.07
2023-02-04T20:49:57.805Z,39.23
2023-02-04T20:52:40.735Z,41.20
2023-02-04T20:55:34.901Z,38.03
2023-02-04T20:58:08.184Z,30.43
2023-02-04T21:00:38.736Z,38.60
2023-02-04T21:03:35.858Z,34.87
2023-02-04T21:06:14.203Z,28.23
2023-02-04T21:08:44.067Z,27.13
2023-02-04T21:11:11.355Z,29.37
2023-02-04T21:13:38.949Z,31.10
2023-02-04T21:16:08.784Z,17.60
2023-02-04T21:18:35.819Z,16.87
2023-02-04T21:21:08.189Z,20.07
2023-02-04T21:23:36.695Z,22.40
2023-02-04T21:26:04.069Z,22.90
2023-02-04T21:28:32.324Z,30.30
2023-02-04T21:31:00.465Z,27.80
2023-02-04T21:33:27.443Z,32.17
2023-02-04T21:35:54.770Z,34.70
2023-02-04T21:38:21.785Z,30.23
2023-02-04T21:40:48.616Z,37.73
2023-02-04T21:43:15.574Z,22.20
2023-02-04T21:45:42.462Z,25.27
2023-02-04T21:48:09.301Z,26.30
2023-02-04T21:50:38.500Z,27.97
2023-02-04T21:53:07.433Z,21.83
2023-02-04T21:55:35.292Z,29.03
2023-02-04T21:58:02.472Z,24.50
2023-02-04T22:00:29.832Z,20.93
2023-02-04T22:02:56.994Z,15.37
2023-02-04T22:05:25.343Z,20.37
2023-02-04T22:07:52.217Z,29.50
2023-02-04T22:10:25.538Z,35.10
2023-02-04T22:12:52.757Z,30.13
2023-02-04T22:15:24.161Z,28.00
2023-02-04T22:17:52.754Z,22.83
2023-02-04T22:20:20.981Z,31.67
2023-02-04T22:22:48.745Z,21.30
2023-02-04T22:25:18.287Z,26.17
2023-02-04T22:27:45.604Z,32.57
2023-02-04T22:30:15.807Z,25.97
2023-02-04T22:32:46.449Z,29.20
2023-02-04T22:35:15.318Z,32.00
2023-02-04T22:37:42.848Z,23.53
2023-02-04T22:40:11.820Z,28.43
2023-02-04T22:42:39.048Z,23.43
2023-02-04T22:45:06.532Z,34.20
2023-02-04T22:47:34.404Z,27.53
2023-02-04T22:50:01.345Z,34.47
2023-02-04T22:52:28.526Z,44.43
2023-02-04T22:54:55.640Z,24.93
2023-02-04T22:57:23.762Z,40.17
2023-02-04T22:59:51.791Z,24.27
2023-02-04T23:02:18.779Z,25.73
2023-02-04T23:04:46.012Z,77.23
2023-02-04T23:07:13.875Z,117.93
2023-02-04T23:09:40.771Z,69.47
2023-02-04T23:12:13.976Z,65.93
2023-02-04T23:14:48.647Z,130.00
2023-02-04T23:17:18.117Z,73.50
2023-02-04T23:19:45.582Z,30.70
2023-02-04T23:22:14.118Z,25.53
2023-02-04T23:24:41.727Z,23.97
2023-02-04T23:27:11.614Z,29.20
2023-02-04T23:29:40.198Z,34.17
2023-02-04T23:32:07.493Z,24.83
2023-02-04T23:34:35.410Z,23.90
2023-02-04T23:37:04.489Z,87.43
2023-02-04T23:39:31.765Z,47.03
2023-02-04T23:41:59.059Z,28.17
2023-02-04T23:44:27.097Z,33.77
2023-02-04T23:46:54.192Z,38.60
2023-02-04T23:49:22.273Z,23.97
2023-02-04T23:51:50.332Z,19.10
2023-02-04T23:54:17.581Z,23.00
2023-02-04T23:56:45.072Z,28.63
2023-02-04T23:59:12.964Z,20.93
